sensor_id;sensor_type;location;lat;lon;timestamp;temperature;humidity
61979;DHT22;47938;48.176;16.414;2022-11-15T00:01:43;6.80;99.90
61979;DHT22;47938;48.176;16.414;2022-11-15T00:04:09;6.80;99.90
61979;DHT22;47938;48.176;16.414;2022-11-15T00:06:35;6.80;99.90
61979;DHT22;47938;48.176;16.414;2022-11-15T00:09:01;6.90;99.90
61979;DHT22;47938;48.176;16.414;2022-11-15T00:11:27;6.90;99.90
61979;DHT22;47938;48.176;16.414;2022-11-15T00:13:57;6.90;99.90
61979;DHT22;47938;48.176;16.414;2022-11-15T00:16:23;6.90;99.90
61979;DHT22;47938;48.176;16.414;2022-11-15T00:18:49;6.90;99.90
61979;DHT22;47938;48.176;16.414;2022-11-15T00:21:15;6.80;99.90
61979;DHT22;47938;48.176;16.414;2022-11-15T00:23:41;6.90;99.90
61979;DHT22;47938;48.176;16.414;2022-11-15T00:26:10;6.90;99.90
61979;DHT22;47938;48.176;16.414;2022-11-15T00:28:36;6.90;99.90
61979;DHT22;47938;48.176;16.414;2022-11-15T00:31:03;6.90;99.90
61979;DHT22;47938;48.176;16.414;2022-11-15T00:33:29;6.90;99.90
61979;DHT22;47938;48.176;16.414;2022-11-15T00:36:03;6.90;99.90
61979;DHT22;47938;48.176;16.414;2022-11-15T00:38:34;6.90;99.90
61979;DHT22;47938;48.176;16.414;2022-11-15T00:41:00;6.90;99.90
61979;DHT22;47938;48.176;16.414;2022-11-15T00:43:26;6.90;99.90
61979;DHT22;47938;48.176;16.414;2022-11-15T00:45:52;6.90;99.90
61979;DHT22;47938;48.176;16.414;2022-11-15T00:48:17;6.90;99.90
61979;DHT22;47938;48.176;16.414;2022-11-15T00:50:43;6.90;99.90
61979;DHT22;47938;48.176;16.414;2022-11-15T00:53:10;6.90;99.90
61979;DHT22;47938;48.176;16.414;2022-11-15T00:55:35;7.00;99.90
61979;DHT22;47938;48.176;16.414;2022-11-15T00:58:01;7.00;99.90
61979;DHT22;47938;48.176;16.414;2022-11-15T01:00:28;6.90;99.90
61979;DHT22;47938;48.176;16.414;2022-11-15T01:02:53;6.90;99.90
61979;DHT22;47938;48.176;16.414;2022-11-15T01:05:19;6.90;99.90
61979;DHT22;47938;48.176;16.414;2022-11-15T01:07:45;7.00;99.90
61979;DHT22;47938;48.176;16.414;2022-11-15T01:10:11;7.00;99.90
61979;DHT22;47938;48.176;16.414;2022-11-15T01:12:37;7.00;99.90
61979;DHT22;47938;48.176;16.414;2022-11-15T01:15:03;6.90;99.90
61979;DHT22;47938;48.176;16.414;2022-11-15T01:17:30;6.90;99.90
61979;DHT22;47938;48.176;16.414;2022-11-15T01:19:56;6.90;99.90
61979;DHT22;47938;48.176;16.414;2022-11-15T01:22:21;6.80;99.90
61979;DHT22;47938;48.176;16.414;2022-11-15T01:24:49;6.90;99.90
61979;DHT22;47938;48.176;16.414;2022-11-15T01:27:14;6.90;99.90
61979;DHT22;47938;48.176;16.414;2022-11-15T01:29:40;6.90;99.90
61979;DHT22;47938;48.176;16.414;2022-11-15T01:32:06;6.90;99.90
61979;DHT22;47938;48.176;16.414;2022-11-15T01:34:31;6.90;99.90
61979;DHT22;47938;48.176;16.414;2022-11-15T01:36:58;7.00;99.90
61979;DHT22;47938;48.176;16.414;2022-11-15T01:39:23;6.90;99.90
61979;DHT22;47938;48.176;16.414;2022-11-15T01:41:49;7.00;99.90
61979;DHT22;47938;48.176;16.414;2022-11-15T01:47:01;7.00;99.90
61979;DHT22;47938;48.176;16.414;2022-11-15T01:49:30;7.00;99.90
61979;DHT22;47938;48.176;16.414;2022-11-15T01:51:58;7.00;99.90
61979;DHT22;47938;48.176;16.414;2022-11-15T01:54:25;7.00;99.90
61979;DHT22;47938;48.176;16.414;2022-11-15T01:57:01;7.00;99.90
61979;DHT22;47938;48.176;16.414;2022-11-15T01:59:27;7.00;99.90
61979;DHT22;47938;48.176;16.414;2022-11-15T02:01:53;7.00;99.90
61979;DHT22;47938;48.176;16.414;2022-11-15T02:04:25;7.00;99.90
61979;DHT22;47938;48.176;16.414;2022-11-15T02:06:52;7.00;99.90
61979;DHT22;47938;48.176;16.414;2022-11-15T02:09:18;6.90;99.90
61979;DHT22;47938;48.176;16.414;2022-11-15T02:11:45;6.90;99.90
61979;DHT22;47938;48.176;16.414;2022-11-15T02:14:12;7.00;99.90
61979;DHT22;47938;48.176;16.414;2022-11-15T02:22:10;7.00;99.90
61979;DHT22;47938;48.176;16.414;2022-11-15T02:30:27;7.00;99.90
61979;DHT22;47938;48.176;16.414;2022-11-15T02:36:01;7.00;99.90
61979;DHT22;47938;48.176;16.414;2022-11-15T02:39:00;7.00;99.90
61979;DHT22;47938;48.176;16.414;2022-11-15T02:41:48;7.00;99.90
61979;DHT22;47938;48.176;16.414;2022-11-15T02:44:31;7.00;99.90
61979;DHT22;47938;48.176;16.414;2022-11-15T02:47:01;7.00;99.90
61979;DHT22;47938;48.176;16.414;2022-11-15T02:49:31;7.00;99.90
61979;DHT22;47938;48.176;16.414;2022-11-15T02:51:57;7.00;99.90
61979;DHT22;47938;48.176;16.414;2022-11-15T02:54:26;7.00;99.90
61979;DHT22;47938;48.176;16.414;2022-11-15T02:57:01;7.00;99.90
61979;DHT22;47938;48.176;16.414;2022-11-15T03:00:06;7.00;99.90
61979;DHT22;47938;48.176;16.414;2022-11-15T03:03:01;7.00;99.90
61979;DHT22;47938;48.176;16.414;2022-11-15T03:10:56;7.00;99.90
61979;DHT22;47938;48.176;16.414;2022-11-15T03:16:20;7.00;99.90
61979;DHT22;47938;48.176;16.414;2022-11-15T03:18:53;7.00;99.90
61979;DHT22;47938;48.176;16.414;2022-11-15T03:21:22;7.10;99.90
61979;DHT22;47938;48.176;16.414;2022-11-15T03:23:50;7.00;99.90
61979;DHT22;47938;48.176;16.414;2022-11-15T03:26:18;7.00;99.90
61979;DHT22;47938;48.176;16.414;2022-11-15T03:29:04;7.00;99.90
61979;DHT22;47938;48.176;16.414;2022-11-15T03:31:34;7.00;99.90
61979;DHT22;47938;48.176;16.414;2022-11-15T03:34:04;7.00;99.90
61979;DHT22;47938;48.176;16.414;2022-11-15T03:36:33;7.00;99.90
61979;DHT22;47938;48.176;16.414;2022-11-15T03:39:02;7.00;99.90
61979;DHT22;47938;48.176;16.414;2022-11-15T03:47:29;7.00;99.90
61979;DHT22;47938;48.176;16.414;2022-11-15T03:50:06;7.00;99.90
61979;DHT22;47938;48.176;16.414;2022-11-15T03:52:34;7.00;99.90
61979;DHT22;47938;48.176;16.414;2022-11-15T03:55:01;7.00;99.90
61979;DHT22;47938;48.176;16.414;2022-11-15T03:57:28;7.00;99.90
61979;DHT22;47938;48.176;16.414;2022-11-15T03:59:53;7.00;99.90
61979;DHT22;47938;48.176;16.414;2022-11-15T04:02:19;7.00;99.90
61979;DHT22;47938;48.176;16.414;2022-11-15T04:04:45;7.00;99.90
61979;DHT22;47938;48.176;16.414;2022-11-15T04:07:11;7.00;99.90
61979;DHT22;47938;48.176;16.414;2022-11-15T04:09:36;7.00;99.90
61979;DHT22;47938;48.176;16.414;2022-11-15T04:12:02;7.00;99.90
61979;DHT22;47938;48.176;16.414;2022-11-15T04:14:28;7.00;99.90
61979;DHT22;47938;48.176;16.414;2022-11-15T04:16:53;7.00;99.90
61979;DHT22;47938;48.176;16.414;2022-11-15T04:19:19;7.00;99.90
61979;DHT22;47938;48.176;16.414;2022-11-15T04:21:44;7.00;99.90
61979;DHT22;47938;48.176;16.414;2022-11-15T04:24:10;6.90;99.90
61979;DHT22;47938;48.176;16.414;2022-11-15T04:26:36;7.00;99.90
61979;DHT22;47938;48.176;16.414;2022-11-15T04:29:01;7.00;99.90
61979;DHT22;47938;48.176;16.414;2022-11-15T04:31:27;6.90;99.90
61979;DHT22;47938;48.176;16.414;2022-11-15T04:33:53;6.90;99.90
61979;DHT22;47938;48.176;16.414;2022-11-15T04:36:20;6.90;99.90
61979;DHT22;47938;48.176;16.414;2022-11-15T04:38:46;7.00;99.90
61979;DHT22;47938;48.176;16.414;2022-11-15T04:41:11;6.90;99.90
61979;DHT22;47938;48.176;16.414;2022-11-15T04:43:37;6.90;99.90
61979;DHT22;47938;48.176;16.414;2022-11-15T04:46:03;6.90;99.90
61979;DHT22;47938;48.176;16.414;2022-11-15T04:48:28;6.90;99.90
61979;DHT22;47938;48.176;16.414;2022-11-15T04:50:54;6.90;99.90
61979;DHT22;47938;48.176;16.414;2022-11-15T04:53:19;6.90;99.90
61979;DHT22;47938;48.176;16.414;2022-11-15T04:55:46;6.90;99.90
61979;DHT22;47938;48.176;16.414;2022-11-15T04:58:11;6.90;99.90
61979;DHT22;47938;48.176;16.414;2022-11-15T05:00:37;6.90;99.90
61979;DHT22;47938;48.176;16.414;2022-11-15T05:03:02;6.90;99.90
61979;DHT22;47938;48.176;16.414;2022-11-15T05:05:28;6.90;99.90
61979;DHT22;47938;48.176;16.414;2022-11-15T05:07:54;6.90;99.90
61979;DHT22;47938;48.176;16.414;2022-11-15T05:10:19;6.90;99.90
61979;DHT22;47938;48.176;16.414;2022-11-15T05:12:46;7.00;99.90
61979;DHT22;47938;48.176;16.414;2022-11-15T05:15:12;7.00;99.90
61979;DHT22;47938;48.176;16.414;2022-11-15T05:17:37;7.00;99.90
61979;DHT22;47938;48.176;16.414;2022-11-15T05:20:03;7.00;99.90
61979;DHT22;47938;48.176;16.414;2022-11-15T05:22:29;6.90;99.90
61979;DHT22;47938;48.176;16.414;2022-11-15T05:24:54;7.00;99.90
61979;DHT22;47938;48.176;16.414;2022-11-15T05:27:20;7.00;99.90
61979;DHT22;47938;48.176;16.414;2022-11-15T05:29:46;7.00;99.90
61979;DHT22;47938;48.176;16.414;2022-11-15T05:32:12;7.00;99.90
61979;DHT22;47938;48.176;16.414;2022-11-15T05:34:37;7.00;99.90
61979;DHT22;47938;48.176;16.414;2022-11-15T05:37:03;7.00;99.90
61979;DHT22;47938;48.176;16.414;2022-11-15T05:39:29;7.00;99.90
61979;DHT22;47938;48.176;16.414;2022-11-15T05:42:02;7.00;99.90
61979;DHT22;47938;48.176;16.414;2022-11-15T05:44:31;7.00;99.90
61979;DHT22;47938;48.176;16.414;2022-11-15T05:46:58;7.00;99.90
61979;DHT22;47938;48.176;16.414;2022-11-15T05:49:28;7.00;99.90
61979;DHT22;47938;48.176;16.414;2022-11-15T05:51:55;7.00;99.90
61979;DHT22;47938;48.176;16.414;2022-11-15T05:54:22;7.00;99.90
61979;DHT22;47938;48.176;16.414;2022-11-15T05:56:48;7.10;99.90
61979;DHT22;47938;48.176;16.414;2022-11-15T05:59:14;7.10;99.90
61979;DHT22;47938;48.176;16.414;2022-11-15T06:01:41;7.10;99.90
61979;DHT22;47938;48.176;16.414;2022-11-15T06:04:07;7.10;99.90
61979;DHT22;47938;48.176;16.414;2022-11-15T06:06:33;7.10;99.90
61979;DHT22;47938;48.176;16.414;2022-11-15T06:08:58;7.10;99.90
61979;DHT22;47938;48.176;16.414;2022-11-15T06:11:24;7.10;99.90
61979;DHT22;47938;48.176;16.414;2022-11-15T06:13:49;7.10;99.90
61979;DHT22;47938;48.176;16.414;2022-11-15T06:16:15;7.10;99.90
61979;DHT22;47938;48.176;16.414;2022-11-15T06:18:41;7.10;99.90
61979;DHT22;47938;48.176;16.414;2022-11-15T06:21:06;7.10;99.90
61979;DHT22;47938;48.176;16.414;2022-11-15T06:23:33;7.10;99.90
61979;DHT22;47938;48.176;16.414;2022-11-15T06:26:01;7.10;99.90
61979;DHT22;47938;48.176;16.414;2022-11-15T06:28:31;7.10;99.90
61979;DHT22;47938;48.176;16.414;2022-11-15T06:31:05;7.10;99.90
61979;DHT22;47938;48.176;16.414;2022-11-15T06:33:32;7.10;99.90
61979;DHT22;47938;48.176;16.414;2022-11-15T06:36:05;7.10;99.90
61979;DHT22;47938;48.176;16.414;2022-11-15T06:38:31;7.10;99.90
61979;DHT22;47938;48.176;16.414;2022-11-15T06:41:04;7.10;99.90
61979;DHT22;47938;48.176;16.414;2022-11-15T06:43:31;7.10;99.90
61979;DHT22;47938;48.176;16.414;2022-11-15T06:46:00;7.10;99.90
61979;DHT22;47938;48.176;16.414;2022-11-15T06:48:27;7.10;99.90
61979;DHT22;47938;48.176;16.414;2022-11-15T06:50:53;7.10;99.90
61979;DHT22;47938;48.176;16.414;2022-11-15T06:53:19;7.10;99.90
61979;DHT22;47938;48.176;16.414;2022-11-15T06:55:45;7.10;99.90
61979;DHT22;47938;48.176;16.414;2022-11-15T06:58:10;7.00;99.90
61979;DHT22;47938;48.176;16.414;2022-11-15T07:00:36;7.00;99.90
61979;DHT22;47938;48.176;16.414;2022-11-15T07:03:02;6.90;99.90
61979;DHT22;47938;48.176;16.414;2022-11-15T07:05:28;7.00;99.90
61979;DHT22;47938;48.176;16.414;2022-11-15T07:07:54;7.00;99.90
61979;DHT22;47938;48.176;16.414;2022-11-15T07:10:21;7.00;99.90
61979;DHT22;47938;48.176;16.414;2022-11-15T07:12:48;7.00;99.90
61979;DHT22;47938;48.176;16.414;2022-11-15T07:15:14;7.00;99.90
61979;DHT22;47938;48.176;16.414;2022-11-15T07:17:40;6.90;99.90
61979;DHT22;47938;48.176;16.414;2022-11-15T07:20:06;7.00;99.90
61979;DHT22;47938;48.176;16.414;2022-11-15T07:22:32;6.90;99.90
61979;DHT22;47938;48.176;16.414;2022-11-15T07:24:58;6.90;99.90
61979;DHT22;47938;48.176;16.414;2022-11-15T07:27:23;6.80;99.90
61979;DHT22;47938;48.176;16.414;2022-11-15T07:29:49;6.90;99.90
61979;DHT22;47938;48.176;16.414;2022-11-15T07:32:14;6.90;99.90
61979;DHT22;47938;48.176;16.414;2022-11-15T07:34:40;6.80;99.90
61979;DHT22;47938;48.176;16.414;2022-11-15T07:37:06;6.80;99.90
61979;DHT22;47938;48.176;16.414;2022-11-15T07:39:31;6.80;99.90
61979;DHT22;47938;48.176;16.414;2022-11-15T07:41:57;6.80;99.90
61979;DHT22;47938;48.176;16.414;2022-11-15T07:44:22;6.90;99.90
61979;DHT22;47938;48.176;16.414;2022-11-15T07:46:48;6.90;99.90
61979;DHT22;47938;48.176;16.414;2022-11-15T07:49:14;6.90;99.90
61979;DHT22;47938;48.176;16.414;2022-11-15T07:51:39;6.90;99.90
61979;DHT22;47938;48.176;16.414;2022-11-15T07:54:05;6.90;99.90
61979;DHT22;47938;48.176;16.414;2022-11-15T07:56:30;6.90;99.90
61979;DHT22;47938;48.176;16.414;2022-11-15T07:58:56;6.90;99.90
61979;DHT22;47938;48.176;16.414;2022-11-15T08:01:22;7.00;99.90
61979;DHT22;47938;48.176;16.414;2022-11-15T08:03:47;7.00;99.90
61979;DHT22;47938;48.176;16.414;2022-11-15T08:06:13;6.90;99.90
61979;DHT22;47938;48.176;16.414;2022-11-15T08:08:38;7.00;99.90
61979;DHT22;47938;48.176;16.414;2022-11-15T08:11:04;7.00;99.90
61979;DHT22;47938;48.176;16.414;2022-11-15T08:13:30;7.00;99.90
61979;DHT22;47938;48.176;16.414;2022-11-15T08:15:59;7.00;99.90
61979;DHT22;47938;48.176;16.414;2022-11-15T08:18:25;7.10;99.90
61979;DHT22;47938;48.176;16.414;2022-11-15T08:20:51;7.10;99.90
61979;DHT22;47938;48.176;16.414;2022-11-15T08:23:16;7.10;99.90
61979;DHT22;47938;48.176;16.414;2022-11-15T08:25:42;7.10;99.90
61979;DHT22;47938;48.176;16.414;2022-11-15T08:28:09;7.20;99.90
61979;DHT22;47938;48.176;16.414;2022-11-15T08:30:37;7.20;99.90
61979;DHT22;47938;48.176;16.414;2022-11-15T08:33:04;7.20;99.90
61979;DHT22;47938;48.176;16.414;2022-11-15T08:35:29;7.20;99.90
61979;DHT22;47938;48.176;16.414;2022-11-15T08:37:55;7.20;99.90
61979;DHT22;47938;48.176;16.414;2022-11-15T08:40:21;7.30;99.90
61979;DHT22;47938;48.176;16.414;2022-11-15T08:42:47;7.30;99.90
61979;DHT22;47938;48.176;16.414;2022-11-15T08:45:13;7.30;99.90
61979;DHT22;47938;48.176;16.414;2022-11-15T08:47:39;7.40;99.90
61979;DHT22;47938;48.176;16.414;2022-11-15T08:50:05;7.30;99.90
61979;DHT22;47938;48.176;16.414;2022-11-15T08:52:31;7.30;99.90
61979;DHT22;47938;48.176;16.414;2022-11-15T08:54:56;7.30;99.90
61979;DHT22;47938;48.176;16.414;2022-11-15T08:57:22;7.30;99.90
61979;DHT22;47938;48.176;16.414;2022-11-15T08:59:48;7.40;99.90
61979;DHT22;47938;48.176;16.414;2022-11-15T09:02:14;7.40;99.90
61979;DHT22;47938;48.176;16.414;2022-11-15T09:04:41;7.40;99.90
61979;DHT22;47938;48.176;16.414;2022-11-15T09:07:06;7.40;99.90
61979;DHT22;47938;48.176;16.414;2022-11-15T09:09:32;7.50;99.90
61979;DHT22;47938;48.176;16.414;2022-11-15T09:11:58;7.50;99.90
61979;DHT22;47938;48.176;16.414;2022-11-15T09:14:23;7.50;99.90
61979;DHT22;47938;48.176;16.414;2022-11-15T09:16:49;7.50;99.90
61979;DHT22;47938;48.176;16.414;2022-11-15T09:19:15;7.50;99.90
61979;DHT22;47938;48.176;16.414;2022-11-15T09:21:40;7.40;99.90
61979;DHT22;47938;48.176;16.414;2022-11-15T09:24:06;7.40;99.90
61979;DHT22;47938;48.176;16.414;2022-11-15T09:26:31;7.40;99.90
61979;DHT22;47938;48.176;16.414;2022-11-15T09:28:57;7.40;99.90
61979;DHT22;47938;48.176;16.414;2022-11-15T09:31:23;7.40;99.90
61979;DHT22;47938;48.176;16.414;2022-11-15T09:33:49;7.40;99.90
61979;DHT22;47938;48.176;16.414;2022-11-15T09:36:14;7.50;99.90
61979;DHT22;47938;48.176;16.414;2022-11-15T09:38:40;7.50;99.90
61979;DHT22;47938;48.176;16.414;2022-11-15T09:49:00;7.60;99.90
61979;DHT22;47938;48.176;16.414;2022-11-15T09:51:39;7.60;99.90
61979;DHT22;47938;48.176;16.414;2022-11-15T09:56:38;7.50;99.90
61979;DHT22;47938;48.176;16.414;2022-11-15T10:04:28;7.40;99.90
61979;DHT22;47938;48.176;16.414;2022-11-15T10:07:46;7.50;99.90
61979;DHT22;47938;48.176;16.414;2022-11-15T10:10:03;7.50;99.90
61979;DHT22;47938;48.176;16.414;2022-11-15T10:12:31;7.40;99.90
61979;DHT22;47938;48.176;16.414;2022-11-15T10:15:12;7.50;99.90
61979;DHT22;47938;48.176;16.414;2022-11-15T10:18:07;7.50;99.90
61979;DHT22;47938;48.176;16.414;2022-11-15T10:20:49;7.40;99.90
61979;DHT22;47938;48.176;16.414;2022-11-15T10:23:21;7.50;99.90
61979;DHT22;47938;48.176;16.414;2022-11-15T10:25:47;7.50;99.90
61979;DHT22;47938;48.176;16.414;2022-11-15T10:28:26;7.60;99.90
61979;DHT22;47938;48.176;16.414;2022-11-15T10:30:59;7.50;99.90
61979;DHT22;47938;48.176;16.414;2022-11-15T10:33:35;7.60;99.90
61979;DHT22;47938;48.176;16.414;2022-11-15T10:38:51;7.60;99.90
61979;DHT22;47938;48.176;16.414;2022-11-15T10:46:35;7.60;99.90
61979;DHT22;47938;48.176;16.414;2022-11-15T10:49:14;7.70;99.90
61979;DHT22;47938;48.176;16.414;2022-11-15T10:54:34;7.70;99.90
61979;DHT22;47938;48.176;16.414;2022-11-15T10:57:06;7.80;99.90
61979;DHT22;47938;48.176;16.414;2022-11-15T10:59:35;7.80;99.90
61979;DHT22;47938;48.176;16.414;2022-11-15T11:02:01;7.80;99.90
61979;DHT22;47938;48.176;16.414;2022-11-15T11:04:27;7.90;99.90
61979;DHT22;47938;48.176;16.414;2022-11-15T11:07:01;7.90;99.90
61979;DHT22;47938;48.176;16.414;2022-11-15T11:09:34;7.90;99.90
61979;DHT22;47938;48.176;16.414;2022-11-15T11:12:01;8.00;99.90
61979;DHT22;47938;48.176;16.414;2022-11-15T11:14:34;8.00;99.90
61979;DHT22;47938;48.176;16.414;2022-11-15T11:17:39;8.10;99.90
61979;DHT22;47938;48.176;16.414;2022-11-15T11:23:34;8.10;99.90
61979;DHT22;47938;48.176;16.414;2022-11-15T11:31:34;8.20;99.90
61979;DHT22;47938;48.176;16.414;2022-11-15T11:39:24;8.10;99.90
61979;DHT22;47938;48.176;16.414;2022-11-15T11:45:19;8.10;99.90
61979;DHT22;47938;48.176;16.414;2022-11-15T11:47:55;8.20;99.90
61979;DHT22;47938;48.176;16.414;2022-11-15T11:50:26;8.20;99.90
61979;DHT22;47938;48.176;16.414;2022-11-15T11:52:59;8.30;99.90
61979;DHT22;47938;48.176;16.414;2022-11-15T11:55:34;8.30;99.90
61979;DHT22;47938;48.176;16.414;2022-11-15T11:58:12;8.40;99.90
61979;DHT22;47938;48.176;16.414;2022-11-15T12:00:43;8.40;99.90
61979;DHT22;47938;48.176;16.414;2022-11-15T12:03:17;8.40;99.90
61979;DHT22;47938;48.176;16.414;2022-11-15T12:05:59;8.40;99.90
61979;DHT22;47938;48.176;16.414;2022-11-15T12:13:42;8.30;99.90
61979;DHT22;47938;48.176;16.414;2022-11-15T12:16:16;8.30;99.90
61979;DHT22;47938;48.176;16.414;2022-11-15T12:18:51;8.40;99.90
61979;DHT22;47938;48.176;16.414;2022-11-15T12:21:46;8.40;99.90
61979;DHT22;47938;48.176;16.414;2022-11-15T12:24:44;8.40;99.90
61979;DHT22;47938;48.176;16.414;2022-11-15T12:30:21;8.50;99.90
61979;DHT22;47938;48.176;16.414;2022-11-15T12:33:09;8.40;99.90
61979;DHT22;47938;48.176;16.414;2022-11-15T12:36:50;8.50;99.90
61979;DHT22;47938;48.176;16.414;2022-11-15T12:39:07;8.50;99.90
61979;DHT22;47938;48.176;16.414;2022-11-15T12:41:35;8.50;99.90
61979;DHT22;47938;48.176;16.414;2022-11-15T12:44:01;8.60;99.90
61979;DHT22;47938;48.176;16.414;2022-11-15T12:48:57;8.60;99.90
61979;DHT22;47938;48.176;16.414;2022-11-15T12:59:48;8.60;99.90
61979;DHT22;47938;48.176;16.414;2022-11-15T13:02:23;8.60;99.90
61979;DHT22;47938;48.176;16.414;2022-11-15T13:04:50;8.60;99.90
61979;DHT22;47938;48.176;16.414;2022-11-15T13:17:50;8.50;99.90
61979;DHT22;47938;48.176;16.414;2022-11-15T13:20:28;8.60;99.90
61979;DHT22;47938;48.176;16.414;2022-11-15T13:23:10;8.60;99.90
61979;DHT22;47938;48.176;16.414;2022-11-15T13:33:36;8.70;99.90
61979;DHT22;47938;48.176;16.414;2022-11-15T13:38:34;8.80;99.90
61979;DHT22;47938;48.176;16.414;2022-11-15T13:41:18;8.80;99.90
61979;DHT22;47938;48.176;16.414;2022-11-15T13:43:44;8.80;99.90
61979;DHT22;47938;48.176;16.414;2022-11-15T13:46:25;8.80;99.90
61979;DHT22;47938;48.176;16.414;2022-11-15T13:48:56;8.80;99.90
61979;DHT22;47938;48.176;16.414;2022-11-15T13:57:05;8.90;99.90
61979;DHT22;47938;48.176;16.414;2022-11-15T13:59:46;8.80;99.90
61979;DHT22;47938;48.176;16.414;2022-11-15T14:02:14;8.90;99.90
61979;DHT22;47938;48.176;16.414;2022-11-15T14:04:50;8.90;99.90
61979;DHT22;47938;48.176;16.414;2022-11-15T14:07:22;8.90;99.90
61979;DHT22;47938;48.176;16.414;2022-11-15T14:09:48;8.90;99.90
61979;DHT22;47938;48.176;16.414;2022-11-15T14:12:29;8.90;99.90
61979;DHT22;47938;48.176;16.414;2022-11-15T14:14:55;8.90;99.90
61979;DHT22;47938;48.176;16.414;2022-11-15T14:17:34;8.90;99.90
61979;DHT22;47938;48.176;16.414;2022-11-15T14:20:00;9.00;99.90
61979;DHT22;47938;48.176;16.414;2022-11-15T14:22:28;9.00;99.90
61979;DHT22;47938;48.176;16.414;2022-11-15T14:27:33;9.00;99.90
61979;DHT22;47938;48.176;16.414;2022-11-15T14:30:00;9.00;99.90
61979;DHT22;47938;48.176;16.414;2022-11-15T14:32:30;9.00;99.90
61979;DHT22;47938;48.176;16.414;2022-11-15T14:35:03;9.00;99.90
61979;DHT22;47938;48.176;16.414;2022-11-15T14:37:30;9.00;99.90
61979;DHT22;47938;48.176;16.414;2022-11-15T14:39:56;9.00;99.90
61979;DHT22;47938;48.176;16.414;2022-11-15T14:42:23;9.00;99.90
61979;DHT22;47938;48.176;16.414;2022-11-15T14:44:48;9.00;99.90
61979;DHT22;47938;48.176;16.414;2022-11-15T14:47:14;9.00;99.90
61979;DHT22;47938;48.176;16.414;2022-11-15T14:49:40;9.00;99.90
61979;DHT22;47938;48.176;16.414;2022-11-15T14:52:32;9.00;99.90
61979;DHT22;47938;48.176;16.414;2022-11-15T14:54:59;9.00;99.90
61979;DHT22;47938;48.176;16.414;2022-11-15T14:57:25;9.10;99.90
61979;DHT22;47938;48.176;16.414;2022-11-15T14:59:50;9.10;99.90
61979;DHT22;47938;48.176;16.414;2022-11-15T15:02:19;9.00;99.90
61979;DHT22;47938;48.176;16.414;2022-11-15T15:04:45;9.00;99.90
61979;DHT22;47938;48.176;16.414;2022-11-15T15:07:10;9.00;99.90
61979;DHT22;47938;48.176;16.414;2022-11-15T15:09:36;9.00;99.90
61979;DHT22;47938;48.176;16.414;2022-11-15T15:12:02;9.00;99.90
61979;DHT22;47938;48.176;16.414;2022-11-15T15:14:27;9.00;99.90
61979;DHT22;47938;48.176;16.414;2022-11-15T15:16:53;9.00;99.90
61979;DHT22;47938;48.176;16.414;2022-11-15T15:19:18;9.00;99.90
61979;DHT22;47938;48.176;16.414;2022-11-15T15:21:44;9.00;99.90
61979;DHT22;47938;48.176;16.414;2022-11-15T15:24:16;9.00;99.90
61979;DHT22;47938;48.176;16.414;2022-11-15T15:26:41;9.10;99.90
61979;DHT22;47938;48.176;16.414;2022-11-15T15:29:07;9.00;99.90
61979;DHT22;47938;48.176;16.414;2022-11-15T15:31:33;9.00;99.90
61979;DHT22;47938;48.176;16.414;2022-11-15T15:33:58;9.10;99.90
61979;DHT22;47938;48.176;16.414;2022-11-15T15:36:24;9.10;99.90
61979;DHT22;47938;48.176;16.414;2022-11-15T15:38:49;9.10;99.90
61979;DHT22;47938;48.176;16.414;2022-11-15T15:41:16;9.10;99.90
61979;DHT22;47938;48.176;16.414;2022-11-15T15:43:42;9.10;99.90
61979;DHT22;47938;48.176;16.414;2022-11-15T15:46:11;9.10;99.90
61979;DHT22;47938;48.176;16.414;2022-11-15T15:48:37;9.10;99.90
61979;DHT22;47938;48.176;16.414;2022-11-15T15:51:03;9.20;99.90
61979;DHT22;47938;48.176;16.414;2022-11-15T15:53:29;9.10;99.90
61979;DHT22;47938;48.176;16.414;2022-11-15T15:55:54;9.20;99.90
61979;DHT22;47938;48.176;16.414;2022-11-15T15:58:20;9.10;99.90
61979;DHT22;47938;48.176;16.414;2022-11-15T16:00:45;9.10;99.90
61979;DHT22;47938;48.176;16.414;2022-11-15T16:03:11;9.00;99.90
61979;DHT22;47938;48.176;16.414;2022-11-15T16:05:37;9.00;99.90
61979;DHT22;47938;48.176;16.414;2022-11-15T16:08:03;9.00;99.90
61979;DHT22;47938;48.176;16.414;2022-11-15T16:10:32;9.00;99.90
61979;DHT22;47938;48.176;16.414;2022-11-15T16:12:59;9.00;99.90
61979;DHT22;47938;48.176;16.414;2022-11-15T16:15:26;9.00;99.90
61979;DHT22;47938;48.176;16.414;2022-11-15T16:17:54;9.00;99.90
61979;DHT22;47938;48.176;16.414;2022-11-15T16:20:42;8.90;99.90
61979;DHT22;47938;48.176;16.414;2022-11-15T16:23:10;8.90;99.90
61979;DHT22;47938;48.176;16.414;2022-11-15T16:25:47;8.90;99.90
61979;DHT22;47938;48.176;16.414;2022-11-15T16:28:17;8.90;99.90
61979;DHT22;47938;48.176;16.414;2022-11-15T16:30:43;8.90;99.90
61979;DHT22;47938;48.176;16.414;2022-11-15T16:33:08;8.90;99.90
61979;DHT22;47938;48.176;16.414;2022-11-15T16:35:34;8.80;99.90
61979;DHT22;47938;48.176;16.414;2022-11-15T16:38:00;8.90;99.90
61979;DHT22;47938;48.176;16.414;2022-11-15T16:40:28;8.90;99.90
61979;DHT22;47938;48.176;16.414;2022-11-15T16:42:54;8.80;99.90
61979;DHT22;47938;48.176;16.414;2022-11-15T16:45:19;8.80;99.90
61979;DHT22;47938;48.176;16.414;2022-11-15T16:47:45;8.90;99.90
61979;DHT22;47938;48.176;16.414;2022-11-15T16:50:37;8.80;99.90
61979;DHT22;47938;48.176;16.414;2022-11-15T16:53:02;8.90;99.90
61979;DHT22;47938;48.176;16.414;2022-11-15T16:55:29;8.90;99.90
61979;DHT22;47938;48.176;16.414;2022-11-15T16:57:55;8.90;99.90
61979;DHT22;47938;48.176;16.414;2022-11-15T17:00:21;8.90;99.90
61979;DHT22;47938;48.176;16.414;2022-11-15T17:02:48;8.90;99.90
61979;DHT22;47938;48.176;16.414;2022-11-15T17:05:16;8.90;99.90
61979;DHT22;47938;48.176;16.414;2022-11-15T17:07:42;8.90;99.90
61979;DHT22;47938;48.176;16.414;2022-11-15T17:10:09;8.90;99.90
61979;DHT22;47938;48.176;16.414;2022-11-15T17:12:36;8.90;99.90
61979;DHT22;47938;48.176;16.414;2022-11-15T17:15:03;8.90;99.90
61979;DHT22;47938;48.176;16.414;2022-11-15T17:17:29;8.80;99.90
61979;DHT22;47938;48.176;16.414;2022-11-15T17:19:55;8.80;99.90
61979;DHT22;47938;48.176;16.414;2022-11-15T17:22:21;8.80;99.90
61979;DHT22;47938;48.176;16.414;2022-11-15T17:24:47;8.90;99.90
61979;DHT22;47938;48.176;16.414;2022-11-15T17:27:13;8.80;99.90
61979;DHT22;47938;48.176;16.414;2022-11-15T17:29:39;8.80;99.90
61979;DHT22;47938;48.176;16.414;2022-11-15T17:32:05;8.90;99.90
61979;DHT22;47938;48.176;16.414;2022-11-15T17:34:31;8.90;99.90
61979;DHT22;47938;48.176;16.414;2022-11-15T17:36:57;8.90;99.90
61979;DHT22;47938;48.176;16.414;2022-11-15T17:39:22;8.80;99.90
61979;DHT22;47938;48.176;16.414;2022-11-15T17:41:48;8.90;99.90
61979;DHT22;47938;48.176;16.414;2022-11-15T17:44:14;8.90;99.90